createdAt,value
2023-02-08T00:00:10.862Z,101122.47
2023-02-08T00:02:37.835Z,101108.97
2023-02-08T00:05:05.511Z,101116.69
2023-02-08T00:07:32.409Z,101099.56
2023-02-08T00:09:59.191Z,101114.81
2023-02-08T00:12:26.173Z,101128.75
2023-02-08T00:14:53.034Z,101124.66
2023-02-08T00:17:20.194Z,101126.72
2023-02-08T00:19:47.006Z,101128.84
2023-02-08T00:22:14.010Z,101126.13
2023-02-08T00:24:40.894Z,101139.28
2023-02-08T00:27:09.361Z,101114.50
2023-02-08T00:29:37.266Z,101132.97
2023-02-08T00:32:05.079Z,101123.09
2023-02-08T00:34:31.926Z,101130.94
2023-02-08T00:36:59.210Z,101129.03
2023-02-08T00:39:25.958Z,101129.50
2023-02-08T00:41:52.976Z,101132.97
2023-02-08T00:44:19.906Z,101136.75
2023-02-08T00:46:46.745Z,101152.09
2023-02-08T00:49:13.582Z,101134.94
2023-02-08T00:51:40.501Z,101140.84
2023-02-08T00:54:07.387Z,101145.41
2023-02-08T00:56:34.446Z,101157.16
2023-02-08T00:59:01.220Z,101157.16
2023-02-08T01:01:28.077Z,101171.19
2023-02-08T01:03:54.872Z,101158.19
2023-02-08T01:06:21.929Z,101161.06
2023-02-08T01:08:48.837Z,101172.66
2023-02-08T01:11:22.603Z,101175.16
2023-02-08T01:13:50.098Z,101161.22
2023-02-08T01:16:19.733Z,101171.41
2023-02-08T01:18:48.693Z,101182.56
2023-02-08T01:21:21.547Z,101180.69
2023-02-08T01:23:49.171Z,101180.44
2023-02-08T01:26:18.006Z,101173.38
2023-02-08T01:28:46.348Z,101175.56
2023-02-08T01:31:17.840Z,101170.09
2023-02-08T01:33:45.428Z,101164.69
2023-02-08T01:36:13.120Z,101168.50
2023-02-08T01:38:42.792Z,101156.66
2023-02-08T01:41:15.348Z,101148.69
2023-02-08T01:44:06.989Z,101170.59
2023-02-08T01:46:36.772Z,101156.53
2023-02-08T01:49:21.537Z,101167.78
2023-02-08T01:51:54.076Z,101180.31
2023-02-08T01:54:24.170Z,101176.41
2023-02-08T01:56:52.464Z,101172.97
2023-02-08T01:59:36.475Z,101179.34
2023-02-08T02:02:05.544Z,101175.41
2023-02-08T02:04:32.454Z,101188.41
2023-02-08T02:07:01.856Z,101186.94
2023-02-08T02:09:34.720Z,101198.75
2023-02-08T02:12:02.408Z,101187.69
2023-02-08T02:14:29.248Z,101184.50
2023-02-08T02:16:56.848Z,101197.28
2023-02-08T02:19:37.363Z,101192.78
2023-02-08T02:22:16.398Z,101209.00
2023-02-08T02:25:16.878Z,101205.63
2023-02-08T02:28:20.729Z,101210.97
2023-02-08T02:31:15.277Z,101218.13
2023-02-08T02:34:05.170Z,101217.56
2023-02-08T02:37:02.815Z,101231.06
2023-02-08T02:39:47.234Z,101173.69
2023-02-08T02:42:53.341Z,101203.16
2023-02-08T02:45:29.525Z,101237.13
2023-02-08T02:48:11.108Z,101219.53
2023-02-08T02:51:17.187Z,101240.66
2023-02-08T02:53:59.496Z,101244.19
2023-02-08T02:56:31.761Z,101247.63
2023-02-08T02:59:04.154Z,101244.97
2023-02-08T03:01:32.867Z,101249.88
2023-02-08T03:03:59.844Z,101256.75
2023-02-08T03:06:49.361Z,101263.28
2023-02-08T03:09:28.710Z,101269.97
2023-02-08T03:12:21.881Z,101277.56
2023-02-08T03:14:50.354Z,101286.03
2023-02-08T03:17:46.015Z,101287.13
2023-02-08T03:20:21.494Z,101288.59
2023-02-08T03:23:10.161Z,101291.50
2023-02-08T03:25:52.113Z,101299.72
2023-02-08T03:28:30.533Z,101294.53
2023-02-08T03:31:12.429Z,101297.72
2023-02-08T03:34:14.238Z,101303.41
2023-02-08T03:36:50.431Z,101313.75
2023-02-08T03:39:24.766Z,101314.03
2023-02-08T03:41:55.779Z,101302.59
2023-02-08T03:44:31.112Z,101305.94
2023-02-08T03:47:05.417Z,101263.34
2023-02-08T03:49:35.887Z,101307.88
2023-02-08T03:52:06.699Z,101301.56
2023-02-08T03:54:38.671Z,101311.44
2023-02-08T03:57:26.523Z,101316.38
2023-02-08T04:00:01.552Z,101321.41
2023-02-08T04:02:48.997Z,101314.41
2023-02-08T04:05:16.599Z,101325.31
2023-02-08T04:07:43.432Z,101322.06
2023-02-08T04:10:10.518Z,101327.78
2023-02-08T04:12:37.330Z,101329.34
2023-02-08T04:15:04.548Z,101341.47
2023-02-08T04:17:32.354Z,101332.91
2023-02-08T04:20:00.496Z,101347.69
2023-02-08T04:22:27.529Z,101343.88
2023-02-08T04:24:54.473Z,101352.25
2023-02-08T04:27:21.336Z,101362.41
2023-02-08T04:29:48.520Z,101367.72
2023-02-08T04:32:15.349Z,101378.22
2023-02-08T04:34:42.252Z,101377.91
2023-02-08T04:37:09.602Z,101372.13
2023-02-08T04:39:36.829Z,101389.91
2023-02-08T04:42:03.929Z,101392.97
2023-02-08T04:44:32.927Z,101403.50
2023-02-08T04:47:00.532Z,101399.75
2023-02-08T04:49:27.782Z,101386.09
2023-02-08T04:51:56.931Z,101421.59
2023-02-08T04:54:24.204Z,101424.47
2023-02-08T04:56:51.336Z,101405.44
2023-02-08T04:59:19.110Z,101437.81
2023-02-08T05:01:45.963Z,101431.31
2023-02-08T05:04:12.867Z,101432.09
2023-02-08T05:06:39.925Z,101437.06
2023-02-08T05:09:09.353Z,101447.38
2023-02-08T05:11:36.968Z,101456.91
2023-02-08T05:14:04.507Z,101457.44
2023-02-08T05:16:31.980Z,101435.38
2023-02-08T05:18:59.052Z,101461.25
2023-02-08T05:21:25.883Z,101458.09
2023-02-08T05:23:52.844Z,101452.22
2023-02-08T05:26:20.555Z,101471.03
2023-02-08T05:28:47.934Z,101477.63
2023-02-08T05:31:21.827Z,101477.63
2023-02-08T05:33:50.049Z,101479.03
2023-02-08T05:36:17.628Z,101462.22
2023-02-08T05:38:44.832Z,101493.31
2023-02-08T05:41:12.572Z,101494.97
2023-02-08T05:43:39.494Z,101486.59
2023-02-08T05:46:06.358Z,101500.22
2023-02-08T05:48:34.378Z,101500.06
2023-02-08T05:51:01.358Z,101505.13
2023-02-08T05:53:28.326Z,101505.13
2023-02-08T05:55:58.108Z,101507.44
2023-02-08T05:58:25.995Z,101514.66
2023-02-08T06:00:53.602Z,101501.72
2023-02-08T06:03:20.677Z,101523.53
2023-02-08T06:05:48.127Z,101523.69
2023-02-08T06:08:15.850Z,101530.53
2023-02-08T06:10:43.377Z,101538.44
2023-02-08T06:13:10.129Z,101527.66
2023-02-08T06:15:37.845Z,101526.47
2023-02-08T06:18:04.805Z,101512.28
2023-02-08T06:20:31.706Z,101524.56
2023-02-08T06:22:58.600Z,101536.59
2023-02-08T06:25:25.496Z,101536.19
2023-02-08T06:27:52.304Z,101521.63
2023-02-08T06:30:19.482Z,101531.72
2023-02-08T06:32:46.411Z,101512.53
2023-02-08T06:35:13.801Z,101528.41
2023-02-08T06:37:40.647Z,101532.06
2023-02-08T06:40:09.066Z,101536.44
2023-02-08T06:42:36.188Z,101529.00
2023-02-08T06:45:03.181Z,101521.94
2023-02-08T06:47:30.638Z,101508.00
2023-02-08T06:49:57.529Z,101537.72
2023-02-08T06:52:24.657Z,101532.19
2023-02-08T06:54:51.434Z,101536.31
2023-02-08T06:57:18.248Z,101510.59
2023-02-08T06:59:46.218Z,101536.03
2023-02-08T07:02:15.920Z,101535.31
2023-02-08T07:04:43.919Z,101520.31
2023-02-08T07:07:12.654Z,101536.72
2023-02-08T07:09:39.974Z,101549.22
2023-02-08T07:12:07.008Z,101550.66
2023-02-08T07:14:40.516Z,101555.78
2023-02-08T07:17:08.143Z,101550.38
2023-02-08T07:19:34.979Z,101554.66
2023-02-08T07:22:08.350Z,101564.81
2023-02-08T07:24:40.462Z,101561.28
2023-02-08T07:27:09.609Z,101568.63
2023-02-08T07:29:36.776Z,101565.84
2023-02-08T07:32:04.990Z,101561.47
2023-02-08T07:34:35.136Z,101557.81
2023-02-08T07:37:02.543Z,101561.66
2023-02-08T07:39:31.378Z,101556.34
2023-02-08T07:41:59.000Z,101570.41
2023-02-08T07:44:29.294Z,101564.72
2023-02-08T07:46:56.300Z,101564.72
2023-02-08T07:49:23.249Z,101572.16
2023-02-08T07:51:50.602Z,101576.72
2023-02-08T07:54:17.458Z,101570.78
2023-02-08T07:56:44.801Z,101570.25
2023-02-08T07:59:11.735Z,101568.91
2023-02-08T08:01:39.135Z,101586.34
2023-02-08T08:04:06.416Z,101562.84
2023-02-08T08:06:33.745Z,101585.25
2023-02-08T08:09:01.521Z,101579.66
2023-02-08T08:11:28.448Z,101582.56
2023-02-08T08:13:55.349Z,101555.94
2023-02-08T08:16:22.846Z,101607.97
2023-02-08T08:18:50.962Z,101601.06
2023-02-08T08:21:17.908Z,101595.81
2023-02-08T08:23:45.045Z,101595.97
2023-02-08T08:26:18.134Z,101598.47
2023-02-08T08:28:46.877Z,101610.66
2023-02-08T08:31:17.743Z,101595.84
2023-02-08T08:33:45.268Z,101596.84
2023-02-08T08:36:12.331Z,101603.09
2023-02-08T08:38:41.194Z,101613.06
2023-02-08T08:41:10.163Z,101608.50
2023-02-08T08:43:37.174Z,101605.13
2023-02-08T08:46:06.168Z,101608.19
2023-02-08T08:48:34.952Z,101618.94
2023-02-08T08:51:02.839Z,101618.03
2023-02-08T08:53:30.322Z,101617.91
2023-02-08T08:55:57.372Z,101618.78
2023-02-08T08:58:24.290Z,101614.59
2023-02-08T09:00:52.451Z,101618.97
2023-02-08T09:03:19.287Z,101616.84
2023-02-08T09:05:46.912Z,101613.19
2023-02-08T09:08:14.250Z,101610.13
2023-02-08T09:10:41.674Z,101622.41
2023-02-08T09:13:09.152Z,101618.78
2023-02-08T09:15:40.012Z,101614.16
2023-02-08T09:18:07.189Z,101625.78
2023-02-08T09:20:34.137Z,101621.22
2023-02-08T09:23:01.690Z,101609.00
2023-02-08T09:25:28.595Z,101622.91
2023-02-08T09:27:55.422Z,101619.91
2023-02-08T09:30:22.613Z,101630.47
2023-02-08T09:32:49.660Z,101631.47
2023-02-08T09:35:16.685Z,101630.28
2023-02-08T09:37:43.935Z,101630.75
2023-02-08T09:40:23.451Z,101591.88
2023-02-08T09:43:09.193Z,101624.72
2023-02-08T09:45:59.353Z,101624.94
2023-02-08T09:48:34.992Z,101617.22
2023-02-08T09:51:27.746Z,101637.06
2023-02-08T09:54:03.131Z,101644.44
2023-02-08T09:56:37.155Z,101628.31
2023-02-08T09:59:04.306Z,101621.50
2023-02-08T10:01:36.609Z,101637.25
2023-02-08T10:04:36.701Z,101634.16
2023-02-08T10:07:03.789Z,101627.03
2023-02-08T10:09:30.654Z,101623.66
2023-02-08T10:12:28.528Z,101630.16
2023-02-08T10:15:23.088Z,101632.59
2023-02-08T10:18:19.210Z,101636.31
2023-02-08T10:21:23.133Z,101629.97
2023-02-08T10:24:25.337Z,101616.53
2023-02-08T10:27:17.042Z,101620.38
2023-02-08T10:30:31.700Z,101613.94
2023-02-08T10:33:02.632Z,101614.78
2023-02-08T10:35:56.307Z,101605.38
2023-02-08T10:38:44.225Z,101602.56
2023-02-08T10:41:33.803Z,101609.47
2023-02-08T10:44:13.459Z,101612.88
2023-02-08T10:47:11.616Z,101616.00
2023-02-08T10:49:59.896Z,101601.72
2023-02-08T10:52:27.583Z,101616.09
2023-02-08T10:54:58.269Z,101613.16
2023-02-08T10:57:32.161Z,101614.59
2023-02-08T11:00:27.057Z,101618.69
2023-02-08T11:03:00.828Z,101618.59
2023-02-08T11:05:37.615Z,101618.16
2023-02-08T11:08:15.641Z,101626.63
2023-02-08T11:11:00.310Z,101625.31
2023-02-08T11:13:36.100Z,101626.44
2023-02-08T11:16:06.512Z,101621.88
2023-02-08T11:18:57.217Z,101631.22
2023-02-08T11:21:33.769Z,101624.00
2023-02-08T11:24:07.729Z,101614.03
2023-02-08T11:26:37.472Z,101624.22
2023-02-08T11:29:26.542Z,101623.16
2023-02-08T11:31:58.193Z,101619.72
2023-02-08T11:34:28.234Z,101634.47
2023-02-08T11:36:57.458Z,101627.38
2023-02-08T11:39:55.638Z,101626.25
2023-02-08T11:42:27.460Z,101623.88
2023-02-08T11:44:56.045Z,101633.56
2023-02-08T11:47:35.283Z,101617.78
2023-02-08T11:50:07.428Z,101641.25
2023-02-08T11:52:39.604Z,101639.97
2023-02-08T11:55:18.704Z,101630.19
2023-02-08T11:57:58.039Z,101638.16
2023-02-08T12:00:28.821Z,101635.50
2023-02-08T12:03:01.856Z,101643.63
2023-02-08T12:05:43.142Z,101624.78
2023-02-08T12:08:38.164Z,101531.00
2023-02-08T12:11:15.013Z,101601.66
2023-02-08T12:13:51.157Z,101650.63
2023-02-08T12:16:20.963Z,101653.78
2023-02-08T12:19:19.361Z,101647.91
2023-02-08T12:21:50.167Z,101639.16
2023-02-08T12:24:23.140Z,101654.38
2023-02-08T12:27:20.084Z,101629.16
2023-02-08T12:30:01.632Z,101646.81
2023-02-08T12:32:49.702Z,101646.25
2023-02-08T12:35:41.710Z,101653.31
2023-02-08T12:38:46.830Z,101657.97
2023-02-08T12:41:28.103Z,101647.53
2023-02-08T12:44:16.463Z,101658.94
2023-02-08T12:47:25.494Z,101661.97
2023-02-08T12:50:20.022Z,101665.75
2023-02-08T12:53:25.726Z,101670.22
2023-02-08T12:55:56.464Z,101654.13
2023-02-08T12:58:45.465Z,101658.81
2023-02-08T13:01:22.956Z,101672.59
2023-02-08T13:04:05.072Z,101682.34
2023-02-08T13:06:40.327Z,101682.34
2023-02-08T13:09:35.664Z,101683.38
2023-02-08T13:12:12.725Z,101677.31
2023-02-08T13:14:51.154Z,101693.75
2023-02-08T13:17:22.864Z,101689.06
2023-02-08T13:20:11.138Z,101696.63
2023-02-08T13:22:41.997Z,101698.84
2023-02-08T13:25:17.095Z,101696.81
2023-02-08T13:27:44.266Z,101681.50
2023-02-08T13:30:22.143Z,101679.47
2023-02-08T13:32:51.848Z,101709.25
2023-02-08T13:35:24.723Z,101696.75
2023-02-08T13:37:58.762Z,101699.94
2023-02-08T13:40:29.900Z,101682.22
2023-02-08T13:43:02.275Z,101710.75
2023-02-08T13:45:43.053Z,101683.63
2023-02-08T13:48:16.649Z,101703.78
2023-02-08T13:50:56.346Z,101688.19
2023-02-08T13:53:38.873Z,101702.47
2023-02-08T13:56:09.941Z,101696.03
2023-02-08T13:58:43.131Z,101705.66
2023-02-08T14:01:17.888Z,101686.84
2023-02-08T14:04:04.960Z,101689.91
2023-02-08T14:06:33.892Z,101687.28
2023-02-08T14:09:29.767Z,101690.22
2023-02-08T14:12:06.483Z,101678.38
2023-02-08T14:14:38.708Z,101694.13
2023-02-08T14:17:18.090Z,101702.41
2023-02-08T14:19:55.861Z,101682.25
2023-02-08T14:22:23.237Z,101689.63
2023-02-08T14:25:02.029Z,101702.53
2023-02-08T14:27:39.132Z,101696.34
2023-02-08T14:30:21.665Z,101699.34
2023-02-08T14:32:53.030Z,101700.59
2023-02-08T14:35:26.376Z,101682.00
2023-02-08T14:38:36.337Z,101698.63
2023-02-08T14:41:04.328Z,101698.69
2023-02-08T14:43:33.828Z,101696.75
2023-02-08T14:46:38.012Z,101707.94
2023-02-08T14:49:19.267Z,101700.31
2023-02-08T14:51:54.247Z,101716.03
2023-02-08T14:54:50.059Z,101715.38
2023-02-08T14:57:25.717Z,101712.31
2023-02-08T14:59:53.959Z,101706.59
2023-02-08T15:02:26.557Z,101710.38
2023-02-08T15:04:53.752Z,101710.16
2023-02-08T15:07:31.270Z,101722.41
2023-02-08T15:10:03.732Z,101725.19
2023-02-08T15:12:40.325Z,101720.63
2023-02-08T15:15:24.494Z,101727.38
2023-02-08T15:17:53.674Z,101721.69
2023-02-08T15:20:22.226Z,101734.31
2023-02-08T15:22:49.101Z,101733.59
2023-02-08T15:25:22.787Z,101741.81
2023-02-08T15:27:53.818Z,101712.09
2023-02-08T15:30:24.682Z,101738.16
2023-02-08T15:32:52.178Z,101724.44
2023-02-08T15:35:20.756Z,101730.47
2023-02-08T15:37:47.931Z,101742.41
2023-02-08T15:40:32.676Z,101738.13
2023-02-08T15:43:20.850Z,101739.50
2023-02-08T15:46:00.503Z,101712.22
2023-02-08T15:48:29.302Z,101751.06
2023-02-08T15:50:57.812Z,101752.78
2023-02-08T15:53:27.471Z,101750.84
2023-02-08T15:56:04.439Z,101756.59
2023-02-08T15:58:36.621Z,101755.88
2023-02-08T16:01:07.544Z,101758.97
2023-02-08T16:03:36.843Z,101760.50
2023-02-08T16:06:06.710Z,101760.97
2023-02-08T16:08:42.184Z,101762.84
2023-02-08T16:11:21.279Z,101768.72
2023-02-08T16:13:51.777Z,101771.28
2023-02-08T16:16:27.004Z,101755.94
2023-02-08T16:19:21.591Z,101775.63
2023-02-08T16:21:51.718Z,101778.50
2023-02-08T16:24:25.647Z,101757.50
2023-02-08T16:27:06.071Z,101795.00
2023-02-08T16:29:39.270Z,101777.31
2023-02-08T16:32:32.100Z,101744.88
2023-02-08T16:35:01.490Z,101774.03
2023-02-08T16:37:31.455Z,101802.53
2023-02-08T16:39:59.308Z,101809.59
2023-02-08T16:42:40.083Z,101799.44
2023-02-08T16:45:19.835Z,101805.34
2023-02-08T16:47:48.339Z,101791.50
2023-02-08T16:50:29.737Z,101793.19
2023-02-08T16:53:01.316Z,101800.91
2023-02-08T16:55:31.958Z,101811.38
2023-02-08T16:57:59.639Z,101809.16
2023-02-08T17:00:32.434Z,101803.94
2023-02-08T17:03:00.049Z,101815.56
2023-02-08T17:05:31.012Z,101813.59
2023-02-08T17:07:59.740Z,101808.88
2023-02-08T17:10:29.745Z,101814.75
2023-02-08T17:13:13.483Z,101820.13
2023-02-08T17:15:46.829Z,101813.56
2023-02-08T17:18:14.398Z,101806.16
2023-02-08T17:20:41.608Z,101819.63
2023-02-08T17:23:09.613Z,101818.78
2023-02-08T17:25:36.983Z,101816.94
2023-02-08T17:28:17.246Z,101816.59
2023-02-08T17:30:45.299Z,101819.28
2023-02-08T17:33:18.563Z,101821.31
2023-02-08T17:35:47.912Z,101810.53
2023-02-08T17:38:15.583Z,101828.56
2023-02-08T17:40:43.890Z,101821.50
2023-02-08T17:43:12.376Z,101824.69
2023-02-08T17:45:41.853Z,101827.91
2023-02-08T17:48:09.309Z,101807.34
2023-02-08T17:50:36.681Z,101825.22
2023-02-08T17:53:04.160Z,101812.91
2023-02-08T17:55:31.223Z,101814.09
2023-02-08T17:58:03.592Z,101822.34
2023-02-08T18:00:30.570Z,101809.72
2023-02-08T18:03:00.519Z,101814.75
2023-02-08T18:05:28.892Z,101818.97
2023-02-08T18:07:56.795Z,101818.97
2023-02-08T18:10:25.549Z,101822.34
2023-02-08T18:12:52.425Z,101831.59
2023-02-08T18:15:22.344Z,101823.19
2023-02-08T18:17:53.803Z,101828.72
2023-02-08T18:20:20.806Z,101824.53
2023-02-08T18:22:47.743Z,101828.56
2023-02-08T18:25:16.210Z,101816.13
2023-02-08T18:27:43.495Z,101830.94
2023-02-08T18:30:11.708Z,101838.50
2023-02-08T18:32:38.524Z,101838.34
2023-02-08T18:35:07.571Z,101833.13
2023-02-08T18:37:36.145Z,101837.84
2023-02-08T18:40:04.710Z,101833.63
2023-02-08T18:42:34.539Z,101822.19
2023-02-08T18:45:19.228Z,101841.22
2023-02-08T18:48:01.091Z,101837.88
2023-02-08T18:50:29.272Z,101839.22
2023-02-08T18:52:56.564Z,101833.31
2023-02-08T18:55:23.922Z,101848.31
2023-02-08T18:58:00.531Z,101827.09
2023-02-08T19:00:27.561Z,101836.56
2023-02-08T19:02:54.507Z,101826.78
2023-02-08T19:05:21.455Z,101827.47
2023-02-08T19:07:48.385Z,101830.00
2023-02-08T19:10:15.265Z,101837.56
2023-02-08T19:12:42.971Z,101834.72
2023-02-08T19:15:10.053Z,101848.69
2023-02-08T19:17:37.164Z,101829.66
2023-02-08T19:20:04.268Z,101848.88
2023-02-08T19:22:31.580Z,101840.94
2023-02-08T19:25:02.489Z,101837.91
2023-02-08T19:27:38.721Z,101844.13
2023-02-08T19:30:12.906Z,101840.94
2023-02-08T19:32:50.746Z,101838.25
2023-02-08T19:35:19.829Z,101831.84
2023-02-08T19:37:50.389Z,101839.25
2023-02-08T19:40:18.508Z,101823.72
2023-02-08T19:42:45.655Z,101807.22
2023-02-08T19:45:13.980Z,101839.56
2023-02-08T19:47:51.592Z,101843.41
2023-02-08T19:50:19.020Z,101822.22
2023-02-08T19:52:46.126Z,101825.75
2023-02-08T19:55:12.992Z,101834.16
2023-02-08T19:57:40.442Z,101842.72
2023-02-08T20:00:17.595Z,101833.78
2023-02-08T20:02:48.460Z,101830.41
2023-02-08T20:05:15.352Z,101830.94
2023-02-08T20:07:42.246Z,101839.66
2023-02-08T20:10:10.156Z,101839.81
2023-02-08T20:12:37.198Z,101853.53
2023-02-08T20:15:04.213Z,101830.94
2023-02-08T20:17:31.160Z,101831.63
2023-02-08T20:19:58.250Z,101833.34
2023-02-08T20:22:25.159Z,101826.59
2023-02-08T20:24:52.176Z,101837.75
2023-02-08T20:27:19.377Z,101837.56
2023-02-08T20:29:46.293Z,101838.72
2023-02-08T20:32:13.385Z,101822.03
2023-02-08T20:34:53.962Z,101835.84
2023-02-08T20:37:27.062Z,101830.28
2023-02-08T20:39:54.434Z,101782.06
2023-02-08T20:42:21.540Z,101818.81
2023-02-08T20:44:48.399Z,101821.66
2023-02-08T20:47:19.218Z,101820.66
2023-02-08T20:49:46.247Z,101826.56
2023-02-08T20:52:13.094Z,101820.28
2023-02-08T20:54:40.310Z,101823.19
2023-02-08T20:57:07.361Z,101823.34
2023-02-08T20:59:35.014Z,101829.72
2023-02-08T21:02:02.012Z,101822.47
2023-02-08T21:04:29.117Z,101833.59
2023-02-08T21:06:56.048Z,101817.75
2023-02-08T21:09:23.446Z,101813.00
2023-02-08T21:11:51.865Z,101832.22
2023-02-08T21:14:23.488Z,101832.38
2023-02-08T21:16:55.939Z,101831.22
2023-02-08T21:19:23.848Z,101819.00
2023-02-08T21:21:52.857Z,101841.25
2023-02-08T21:24:21.083Z,101832.28
2023-02-08T21:26:48.017Z,101835.44
2023-02-08T21:29:14.918Z,101829.44
2023-02-08T21:31:42.087Z,101843.59
2023-02-08T21:34:09.467Z,101813.25
2023-02-08T21:36:36.379Z,101832.97
2023-02-08T21:39:03.883Z,101856.50
2023-02-08T21:41:33.855Z,101855.81
2023-02-08T21:44:03.791Z,101861.47
2023-02-08T21:46:32.427Z,101855.91
2023-02-08T21:49:18.093Z,101874.38
2023-02-08T21:52:03.572Z,101867.97
2023-02-08T21:54:42.084Z,101865.88
2023-02-08T21:57:18.723Z,101861.13
2023-02-08T21:59:47.696Z,101862.34
2023-02-08T22:02:26.360Z,101850.97
2023-02-08T22:05:14.439Z,101842.69
2023-02-08T22:07:54.321Z,101839.47
2023-02-08T22:10:24.640Z,101856.09
2023-02-08T22:12:52.644Z,101857.66
2023-02-08T22:15:21.820Z,101857.06
2023-02-08T22:17:52.514Z,101831.75
2023-02-08T22:20:19.916Z,101864.97
2023-02-08T22:22:46.828Z,101847.50
2023-02-08T22:25:14.466Z,101852.56
2023-02-08T22:27:41.458Z,101858.91
2023-02-08T22:30:09.953Z,101849.75
2023-02-08T22:32:40.270Z,101847.63
2023-02-08T22:35:08.104Z,101834.03
2023-02-08T22:37:35.660Z,101843.19
2023-02-08T22:40:02.910Z,101856.19
2023-02-08T22:42:30.594Z,101845.66
2023-02-08T22:44:57.388Z,101841.09
2023-02-08T22:47:24.690Z,101843.28
2023-02-08T22:49:51.529Z,101843.09
2023-02-08T22:52:18.721Z,101856.81
2023-02-08T22:54:46.342Z,101855.66
2023-02-08T22:57:13.319Z,101837.84
2023-02-08T22:59:40.485Z,101853.13
2023-02-08T23:02:07.622Z,101823.00
2023-02-08T23:04:34.442Z,101832.94
2023-02-08T23:07:01.464Z,101849.53
2023-02-08T23:09:28.715Z,101841.31
2023-02-08T23:11:55.768Z,101829.91
2023-02-08T23:14:22.657Z,101813.00
2023-02-08T23:16:49.670Z,101843.16
2023-02-08T23:19:17.949Z,101848.38
2023-02-08T23:21:46.551Z,101854.75
2023-02-08T23:24:13.610Z,101838.47
2023-02-08T23:26:41.039Z,101853.19
2023-02-08T23:29:08.497Z,101853.50
2023-02-08T23:31:35.560Z,101847.91
2023-02-08T23:34:02.595Z,101849.50
2023-02-08T23:36:29.547Z,101847.66
2023-02-08T23:38:56.335Z,101858.94
2023-02-08T23:41:24.337Z,101855.00
2023-02-08T23:43:52.182Z,101866.72
2023-02-08T23:46:20.964Z,101869.41
2023-02-08T23:48:48.702Z,101852.81
2023-02-08T23:51:17.578Z,101859.56
2023-02-08T23:54:09.321Z,101865.63
2023-02-08T23:56:36.506Z,101860.03
2023-02-08T23:59:08.281Z,101860.50
